Time;durP1;ratioP1;P1;durP2;ratioP2;P2;SDS_P1;SDS_P2;PMS_P1;PMS_P2;Temp;Humidity;BMP_temperature;BMP_pressure;BME280_temperature;BME280_humidity;BME280_pressure;Samples;Min_cycle;Max_cycle;Signal;HPM_P1;HPM_P2
2021/10/01 00:01:27;;;;;;;5.43;1.08;;;13.40;99.90;;;;;;4911153;29;20036;-91
2021/10/01 00:03:53;;;;;;;5.50;1.13;;;13.40;99.90;;;;;;4916580;29;20044;-92
2021/10/01 00:06:19;;;;;;;2.67;0.70;;;13.40;99.90;;;;;;4911819;29;20065;-90
2021/10/01 00:08:45;;;;;;;4.72;1.27;;;13.40;99.90;;;;;;4908944;29;20067;-92
2021/10/01 00:11:10;;;;;;;2.13;0.52;;;13.40;99.90;;;;;;4908998;29;20494;-91
2021/10/01 00:13:37;;;;;;;2.55;0.98;;;13.40;99.90;;;;;;4915713;29;20466;-92
2021/10/01 00:16:04;;;;;;;5.43;1.88;;;13.40;99.90;;;;;;4911352;29;20079;-91
2021/10/01 00:18:30;;;;;;;6.03;1.05;;;13.40;99.90;;;;;;4910297;29;20027;-91
2021/10/01 00:20:56;;;;;;;2.00;0.88;;;13.40;99.90;;;;;;4911482;29;20118;-91
2021/10/01 00:23:21;;;;;;;6.05;1.10;;;13.40;99.90;;;;;;4907215;29;20028;-92
2021/10/01 00:25:47;;;;;;;4.15;1.60;;;13.40;99.90;;;;;;4904412;29;20016;-92
2021/10/01 00:28:13;;;;;;;2.38;0.80;;;13.30;99.90;;;;;;4902838;29;20035;-91
2021/10/01 00:30:39;;;;;;;2.08;0.77;;;13.40;99.90;;;;;;4902548;29;20028;-91
2021/10/01 00:33:04;;;;;;;2.92;0.80;;;13.30;99.90;;;;;;4916846;29;20043;-91
2021/10/01 00:35:30;;;;;;;4.20;0.77;;;13.30;99.90;;;;;;4912659;29;20549;-92
2021/10/01 00:37:58;;;;;;;3.88;1.13;;;13.30;99.90;;;;;;4906580;29;20024;-92
2021/10/01 00:40:26;;;;;;;4.53;1.00;;;13.30;99.90;;;;;;4903552;29;20597;-91
2021/10/01 00:42:52;;;;;;;3.70;0.85;;;13.30;99.90;;;;;;4917332;29;20035;-92
2021/10/01 00:45:18;;;;;;;5.35;1.00;;;13.30;99.90;;;;;;4912670;29;20032;-91
2021/10/01 00:47:43;;;;;;;5.72;1.20;;;13.30;99.90;;;;;;4910669;29;20046;-92
2021/10/01 00:50:10;;;;;;;2.25;0.73;;;13.30;99.90;;;;;;4910351;29;20063;-93
2021/10/01 00:52:36;;;;;;;2.97;0.90;;;13.30;99.90;;;;;;4912985;29;20051;-93
2021/10/01 00:55:03;;;;;;;3.40;1.00;;;13.30;99.90;;;;;;4908821;29;20060;-92
2021/10/01 00:57:29;;;;;;;5.40;0.85;;;13.30;99.90;;;;;;4907581;29;20079;-93
2021/10/01 00:59:55;;;;;;;2.05;0.80;;;13.30;99.90;;;;;;4903310;29;20089;-91
2021/10/01 01:02:21;;;;;;;5.78;1.25;;;13.20;99.90;;;;;;4904614;29;20067;-92
2021/10/01 01:04:48;;;;;;;5.82;1.02;;;13.20;99.90;;;;;;4908780;29;20048;-93
2021/10/01 01:07:20;;;;;;;4.18;1.05;;;13.20;99.90;;;;;;4908161;29;20028;-94
2021/10/01 01:10:04;;;;;;;2.90;0.77;;;13.20;99.90;;;;;;4910432;29;20028;-94
2021/10/01 01:12:43;;;;;;;3.85;1.60;;;13.20;99.90;;;;;;4940318;29;20111;-93
2021/10/01 01:15:39;;;;;;;5.45;1.00;;;13.10;99.90;;;;;;4910622;29;20552;-93
2021/10/01 01:18:10;;;;;;;4.57;0.90;;;13.20;99.90;;;;;;4939384;29;20024;-91
2021/10/01 01:20:45;;;;;;;4.82;1.00;;;13.20;99.90;;;;;;4907702;29;20039;-92
2021/10/01 01:23:22;;;;;;;5.45;1.20;;;13.10;99.90;;;;;;4908900;29;20020;-93
2021/10/01 01:25:54;;;;;;;4.78;1.08;;;13.10;99.90;;;;;;4906763;29;20493;-92
2021/10/01 01:28:35;;;;;;;2.83;1.20;;;13.10;99.90;;;;;;4913513;29;20031;-94
2021/10/01 01:31:07;;;;;;;3.83;1.02;;;13.10;99.90;;;;;;4907469;29;20394;-93
2021/10/01 01:33:35;;;;;;;2.30;1.10;;;13.10;99.90;;;;;;4907558;29;20192;-92
2021/10/01 01:36:01;;;;;;;2.30;0.90;;;13.10;99.90;;;;;;4911205;29;20028;-93
2021/10/01 01:38:36;;;;;;;2.10;0.95;;;13.10;99.90;;;;;;4906071;29;20036;-93
2021/10/01 01:41:03;;;;;;;5.30;1.00;;;13.10;99.90;;;;;;4908765;29;20103;-93
2021/10/01 01:43:31;;;;;;;4.65;0.90;;;13.10;99.90;;;;;;4905506;29;20029;-92
2021/10/01 01:45:57;;;;;;;5.90;1.00;;;13.10;99.90;;;;;;4911850;29;20026;-93
2021/10/01 01:48:24;;;;;;;7.30;0.98;;;13.10;99.90;;;;;;4913302;29;20068;-93
2021/10/01 01:50:50;;;;;;;5.60;1.10;;;13.10;99.90;;;;;;4907127;29;20024;-93
2021/10/01 01:53:18;;;;;;;3.17;0.77;;;13.10;99.90;;;;;;4953672;28;20024;-92
2021/10/01 01:55:46;;;;;;;2.60;0.70;;;13.10;99.90;;;;;;4920795;29;20069;-93
2021/10/01 01:58:14;;;;;;;4.90;0.90;;;13.10;99.90;;;;;;4921586;29;20028;-92
2021/10/01 02:00:40;;;;;;;3.67;0.95;;;13.10;99.90;;;;;;4918236;29;20047;-92
2021/10/01 02:03:06;;;;;;;3.83;0.88;;;13.10;99.90;;;;;;4926919;29;20477;-92
2021/10/01 02:05:33;;;;;;;5.25;1.88;;;13.10;99.90;;;;;;4926464;29;20524;-93
2021/10/01 02:08:00;;;;;;;4.07;1.20;;;13.00;99.90;;;;;;4916935;29;20032;-92
2021/10/01 02:10:27;;;;;;;5.22;1.00;;;13.00;99.90;;;;;;4919592;29;20023;-93
2021/10/01 02:12:57;;;;;;;2.88;0.65;;;13.00;99.90;;;;;;4915770;29;20028;-92
2021/10/01 02:15:25;;;;;;;4.50;0.80;;;13.00;99.90;;;;;;4926362;29;20024;-92
2021/10/01 02:17:55;;;;;;;3.88;0.70;;;13.00;99.90;;;;;;4909245;29;20028;-93
2021/10/01 02:20:23;;;;;;;2.50;0.90;;;13.00;99.90;;;;;;4908851;29;20033;-92
2021/10/01 02:22:49;;;;;;;2.67;0.60;;;13.00;99.90;;;;;;4902667;29;20052;-92
2021/10/01 02:28:04;;;;;;;1.75;0.40;;;13.00;99.90;;;;;;4922447;29;20038;-93
2021/10/01 02:30:32;;;;;;;0.55;0.35;;;13.00;99.90;;;;;;4919752;29;20056;-92
2021/10/01 02:33:13;;;;;;;0.82;0.40;;;13.00;99.90;;;;;;4913251;29;20028;-94
2021/10/01 02:35:39;;;;;;;2.83;0.52;;;13.00;99.90;;;;;;4920257;29;20121;-93
2021/10/01 02:38:04;;;;;;;1.63;0.45;;;13.00;99.90;;;;;;4906875;29;20503;-92
2021/10/01 02:40:30;;;;;;;3.33;0.70;;;13.00;99.90;;;;;;4912207;29;20028;-92
2021/10/01 02:42:56;;;;;;;1.38;0.50;;;12.90;99.90;;;;;;4914784;29;20034;-93
2021/10/01 02:45:22;;;;;;;2.55;0.57;;;12.90;99.90;;;;;;4913750;29;20028;-93
2021/10/01 02:47:49;;;;;;;2.22;0.35;;;12.90;99.90;;;;;;4910257;29;20068;-93
2021/10/01 02:50:20;;;;;;;1.90;0.47;;;12.90;99.90;;;;;;4912482;29;20027;-93
2021/10/01 02:53:10;;;;;;;2.22;0.50;;;12.90;99.90;;;;;;4915170;29;20020;-93
2021/10/01 02:55:51;;;;;;;1.15;0.52;;;12.90;99.90;;;;;;4911598;29;20027;-92
2021/10/01 02:58:26;;;;;;;0.30;0.30;;;12.80;99.90;;;;;;4914111;29;20030;-92
2021/10/01 03:00:53;;;;;;;2.70;0.30;;;12.80;99.90;;;;;;4916278;29;20478;-92
2021/10/01 03:03:25;;;;;;;1.55;0.50;;;12.80;99.90;;;;;;4914193;29;20048;-93
2021/10/01 03:05:54;;;;;;;1.38;0.40;;;12.70;99.90;;;;;;4913600;29;20498;-93
2021/10/01 03:08:22;;;;;;;2.42;0.40;;;12.70;99.90;;;;;;4914030;29;20032;-93
2021/10/01 03:10:50;;;;;;;1.40;0.40;;;12.70;99.90;;;;;;4906454;29;20024;-93
2021/10/01 03:13:20;;;;;;;0.85;0.30;;;12.70;99.90;;;;;;4922408;29;20035;-93
2021/10/01 03:15:51;;;;;;;4.13;0.57;;;12.70;99.90;;;;;;4904820;29;20032;-92
2021/10/01 03:18:18;;;;;;;1.48;0.40;;;12.70;99.90;;;;;;4907192;29;20028;-92
2021/10/01 03:20:44;;;;;;;2.75;0.32;;;12.70;99.90;;;;;;4904849;29;20108;-93
2021/10/01 03:23:12;;;;;;;1.10;0.30;;;12.70;99.90;;;;;;4903770;29;20466;-93
2021/10/01 03:25:38;;;;;;;0.93;0.40;;;12.60;99.90;;;;;;4906303;29;20038;-94
2021/10/01 03:28:06;;;;;;;1.33;0.50;;;12.60;99.90;;;;;;4911125;29;20082;-94
2021/10/01 03:30:32;;;;;;;1.17;0.68;;;12.60;99.90;;;;;;4908657;29;20055;-94
2021/10/01 03:32:58;;;;;;;1.10;0.45;;;12.60;99.90;;;;;;4917509;29;20027;-94
2021/10/01 03:35:23;;;;;;;1.08;0.52;;;12.60;99.90;;;;;;4910015;29;20043;-94
2021/10/01 03:37:51;;;;;;;3.45;0.63;;;12.50;99.90;;;;;;4911356;29;20027;-93
2021/10/01 03:40:17;;;;;;;2.63;0.60;;;12.50;99.90;;;;;;4909863;29;20055;-93
2021/10/01 03:42:43;;;;;;;5.60;0.70;;;12.50;99.90;;;;;;4911546;29;20047;-93
2021/10/01 03:45:10;;;;;;;3.30;1.13;;;12.50;99.90;;;;;;4909918;29;20557;-93
2021/10/01 03:47:36;;;;;;;4.75;0.68;;;12.50;99.90;;;;;;4910284;29;20036;-93
2021/10/01 03:50:02;;;;;;;1.02;0.45;;;12.50;99.90;;;;;;4903911;29;20032;-93
2021/10/01 03:52:28;;;;;;;1.35;0.40;;;12.40;99.90;;;;;;4902779;29;20031;-94
2021/10/01 03:54:55;;;;;;;5.25;0.50;;;12.40;99.90;;;;;;4900392;29;20129;-94
2021/10/01 03:57:20;;;;;;;2.80;0.52;;;12.40;99.90;;;;;;4941631;28;20028;-93
2021/10/01 03:59:46;;;;;;;0.85;0.40;;;12.30;99.90;;;;;;4940963;29;20036;-94
2021/10/01 04:02:12;;;;;;;2.22;0.52;;;12.30;99.90;;;;;;4904290;29;20029;-92
2021/10/01 04:04:38;;;;;;;1.65;0.40;;;12.30;99.90;;;;;;4914740;29;20052;-93
2021/10/01 04:07:04;;;;;;;1.48;0.50;;;12.20;99.90;;;;;;4911807;29;20075;-93
2021/10/01 04:09:31;;;;;;;2.13;0.70;;;12.20;99.90;;;;;;4905594;29;20122;-93
2021/10/01 04:11:57;;;;;;;2.17;0.63;;;12.20;99.90;;;;;;4908821;29;20036;-93
2021/10/01 04:14:24;;;;;;;2.78;0.93;;;12.20;99.90;;;;;;4912432;29;20055;-93
2021/10/01 04:16:50;;;;;;;3.75;0.95;;;12.20;99.90;;;;;;4910857;29;20027;-93
2021/10/01 04:19:16;;;;;;;3.25;0.82;;;12.10;99.90;;;;;;4911438;29;20054;-93
2021/10/01 04:21:44;;;;;;;2.78;0.90;;;12.10;99.90;;;;;;4908313;29;20063;-93
2021/10/01 04:24:09;;;;;;;0.93;0.60;;;12.10;99.90;;;;;;4907938;29;20020;-93
2021/10/01 04:26:35;;;;;;;1.52;0.50;;;12.10;99.90;;;;;;4910962;29;20042;-93
2021/10/01 04:29:01;;;;;;;3.53;0.75;;;12.10;99.90;;;;;;4910589;29;20115;-94
2021/10/01 04:31:27;;;;;;;3.50;0.70;;;12.10;99.90;;;;;;4940468;29;20015;-92
2021/10/01 04:33:52;;;;;;;1.27;0.50;;;12.00;99.90;;;;;;4910311;29;20042;-93
2021/10/01 04:36:18;;;;;;;1.67;0.60;;;12.00;99.90;;;;;;4910798;29;20065;-94
2021/10/01 04:38:44;;;;;;;1.20;0.43;;;12.00;99.90;;;;;;4908151;29;20103;-92
2021/10/01 04:41:11;;;;;;;0.85;0.43;;;12.00;99.90;;;;;;4909805;29;20118;-94
2021/10/01 04:43:37;;;;;;;1.15;0.50;;;12.00;99.90;;;;;;4910112;29;20035;-93
2021/10/01 04:46:06;;;;;;;4.95;0.57;;;12.00;99.90;;;;;;4908355;29;20457;-93
2021/10/01 04:48:31;;;;;;;1.35;0.45;;;12.00;99.90;;;;;;4911728;29;20163;-93
2021/10/01 04:50:57;;;;;;;2.13;0.52;;;11.90;99.90;;;;;;4912312;29;20028;-93
2021/10/01 04:53:23;;;;;;;2.97;0.55;;;12.00;99.90;;;;;;4907883;29;20024;-94
2021/10/01 04:55:49;;;;;;;2.22;0.98;;;12.00;99.90;;;;;;4912760;29;20504;-92
2021/10/01 04:58:14;;;;;;;2.75;0.70;;;12.00;99.90;;;;;;4913181;29;20028;-93
2021/10/01 05:00:40;;;;;;;2.83;0.70;;;11.90;99.90;;;;;;4920064;29;20035;-92
2021/10/01 05:03:07;;;;;;;7.35;0.70;;;11.90;99.90;;;;;;4919545;29;20389;-93
2021/10/01 05:05:32;;;;;;;4.47;0.65;;;11.90;99.90;;;;;;4918557;29;20231;-92
2021/10/01 05:07:58;;;;;;;2.50;0.85;;;11.90;99.90;;;;;;4917683;29;20028;-91
2021/10/01 05:10:24;;;;;;;3.40;0.88;;;11.90;99.90;;;;;;4914914;29;20020;-92
2021/10/01 05:12:50;;;;;;;4.53;0.80;;;11.90;99.90;;;;;;4910949;29;20034;-91
2021/10/01 05:15:18;;;;;;;4.32;1.27;;;11.90;99.90;;;;;;4910042;29;20058;-91
2021/10/01 05:17:44;;;;;;;4.20;1.00;;;11.80;99.90;;;;;;4911708;29;20020;-91
2021/10/01 05:20:12;;;;;;;10.70;1.10;;;11.80;99.90;;;;;;4910270;29;20036;-91
2021/10/01 05:22:39;;;;;;;2.88;0.80;;;11.80;99.90;;;;;;4908150;29;20025;-91
2021/10/01 05:25:06;;;;;;;2.03;0.50;;;11.80;99.90;;;;;;4910620;29;20042;-92
2021/10/01 05:27:32;;;;;;;2.13;0.57;;;11.80;99.90;;;;;;4906516;29;20022;-92
2021/10/01 05:29:59;;;;;;;2.95;0.50;;;11.80;99.90;;;;;;4911553;29;20027;-92
2021/10/01 05:32:25;;;;;;;2.00;0.43;;;11.80;99.90;;;;;;4907617;29;20036;-91
2021/10/01 05:34:51;;;;;;;2.75;0.88;;;11.80;99.90;;;;;;4909905;29;20031;-92
2021/10/01 05:37:17;;;;;;;3.03;0.50;;;11.80;99.90;;;;;;4912134;29;20030;-91
2021/10/01 05:39:43;;;;;;;1.73;0.60;;;11.80;99.90;;;;;;4908102;29;20028;-92
2021/10/01 05:42:09;;;;;;;1.33;0.60;;;11.80;99.90;;;;;;4908378;29;20438;-92
2021/10/01 05:44:34;;;;;;;4.78;1.02;;;11.80;99.90;;;;;;4909357;29;20107;-91
2021/10/01 05:47:03;;;;;;;2.15;0.63;;;11.80;99.90;;;;;;4910646;29;20602;-92
2021/10/01 05:49:37;;;;;;;1.63;0.63;;;11.80;99.90;;;;;;4910579;29;20032;-92
2021/10/01 05:52:22;;;;;;;2.58;0.70;;;11.80;99.90;;;;;;4910666;29;20176;-91
2021/10/01 05:54:50;;;;;;;2.22;0.80;;;11.80;99.90;;;;;;4913766;29;20020;-92
2021/10/01 05:57:17;;;;;;;0.95;0.60;;;11.80;99.90;;;;;;4911446;29;20115;-92
2021/10/01 05:59:43;;;;;;;1.58;0.60;;;11.80;99.90;;;;;;4916881;29;20561;-92
2021/10/01 06:02:18;;;;;;;2.58;0.50;;;11.80;99.90;;;;;;4918358;29;20039;-92
2021/10/01 06:04:44;;;;;;;3.33;0.88;;;11.80;99.90;;;;;;4918760;29;20091;-91
2021/10/01 06:09:35;;;;;;;3.17;0.75;;;11.80;99.90;;;;;;4909756;23;20057;-94
2021/10/01 06:12:02;;;;;;;1.25;0.50;;;11.80;99.90;;;;;;4941069;29;20087;-93
2021/10/01 06:14:27;;;;;;;4.65;0.90;;;11.80;99.90;;;;;;4928086;29;20023;-94
2021/10/01 06:16:54;;;;;;;2.30;0.70;;;11.80;99.90;;;;;;4951887;29;20026;-93
2021/10/01 06:19:20;;;;;;;5.97;0.80;;;11.80;99.90;;;;;;4935514;29;20023;-95
2021/10/01 06:21:47;;;;;;;1.73;0.57;;;11.80;99.90;;;;;;4954036;28;20037;-95
2021/10/01 06:24:13;;;;;;;2.42;0.75;;;11.80;99.90;;;;;;4934939;29;20118;-94
2021/10/01 06:26:38;;;;;;;2.65;0.52;;;11.80;99.90;;;;;;4931698;29;20110;-95
2021/10/01 06:29:04;;;;;;;3.47;0.50;;;11.80;99.90;;;;;;4949983;29;20067;-94
2021/10/01 06:31:30;;;;;;;1.95;0.40;;;11.80;99.90;;;;;;4933013;29;20019;-95
2021/10/01 06:33:56;;;;;;;2.50;0.65;;;11.80;99.90;;;;;;4932783;29;20027;-95
2021/10/01 06:36:23;;;;;;;3.42;0.40;;;11.80;99.90;;;;;;4922787;29;20071;-95
2021/10/01 06:38:50;;;;;;;1.50;0.45;;;11.80;99.90;;;;;;4932598;29;20027;-96
2021/10/01 06:41:16;;;;;;;1.33;0.40;;;11.80;99.90;;;;;;4936974;29;20030;-96
2021/10/01 06:43:44;;;;;;;5.28;1.55;;;11.80;99.90;;;;;;4927350;29;20035;-95
2021/10/01 06:46:22;;;;;;;1.55;0.50;;;11.80;99.90;;;;;;4930469;29;20027;-94
2021/10/01 08:20:32;;;;;;;3.55;1.38;;;12.70;99.90;;;;;;4948686;29;20046;-92
2021/10/01 08:22:58;;;;;;;9.02;1.20;;;12.70;99.90;;;;;;4947670;29;20130;-89
2021/10/01 08:25:24;;;;;;;6.00;1.38;;;12.80;99.90;;;;;;4929541;29;20123;-90
2021/10/01 08:27:50;;;;;;;7.30;1.65;;;12.90;99.90;;;;;;4922015;29;20024;-90
2021/10/01 08:30:16;;;;;;;7.57;1.67;;;13.00;99.90;;;;;;4913100;29;20151;-90
2021/10/01 08:32:41;;;;;;;7.32;1.27;;;13.00;99.90;;;;;;4916936;29;20447;-91
2021/10/01 08:35:09;;;;;;;6.55;1.60;;;13.00;99.90;;;;;;4910980;29;20038;-90
2021/10/01 08:37:35;;;;;;;10.52;1.10;;;13.10;99.90;;;;;;4915770;29;20127;-92
2021/10/01 08:40:02;;;;;;;9.13;1.55;;;13.10;99.90;;;;;;4909478;29;20032;-89
2021/10/01 08:42:28;;;;;;;6.30;1.27;;;13.10;99.90;;;;;;4918017;29;20498;-88
2021/10/01 08:44:54;;;;;;;7.82;1.40;;;13.10;99.90;;;;;;4932643;29;20039;-89
2021/10/01 08:47:20;;;;;;;9.02;1.52;;;13.10;99.90;;;;;;4935634;29;20035;-90
2021/10/01 08:49:50;;;;;;;6.53;1.42;;;13.20;99.90;;;;;;4935550;29;20094;-90
2021/10/01 08:52:16;;;;;;;8.43;1.55;;;13.10;99.90;;;;;;4931887;29;20034;-90
2021/10/01 08:54:43;;;;;;;6.72;1.33;;;13.10;99.90;;;;;;4935687;29;20138;-90
2021/10/01 08:57:10;;;;;;;5.45;1.00;;;13.20;99.90;;;;;;4935240;29;20019;-90
2021/10/01 08:59:37;;;;;;;9.85;1.50;;;13.20;99.90;;;;;;4936025;29;20055;-90
2021/10/01 09:02:03;;;;;;;11.70;1.67;;;13.20;99.90;;;;;;4928507;29;20031;-91
2021/10/01 09:04:29;;;;;;;8.52;1.90;;;13.30;99.90;;;;;;4931801;29;20023;-91
2021/10/01 09:06:57;;;;;;;13.30;1.48;;;13.40;99.90;;;;;;4935937;29;20036;-91
2021/10/01 09:09:43;;;;;;;9.10;1.50;;;13.40;99.90;;;;;;4919600;29;20103;-90
2021/10/01 09:12:09;;;;;;;7.03;1.92;;;13.40;99.90;;;;;;4924724;29;20513;-90
2021/10/01 09:14:52;;;;;;;7.50;1.85;;;13.50;99.90;;;;;;4923468;29;20044;-91
2021/10/01 09:17:20;;;;;;;7.75;1.67;;;13.50;99.90;;;;;;4928778;29;20024;-90
2021/10/01 09:19:46;;;;;;;4.88;1.40;;;13.50;99.90;;;;;;4909554;29;20044;-90
2021/10/01 09:22:28;;;;;;;14.23;2.60;;;13.50;99.90;;;;;;4925237;29;20486;-90
2021/10/01 09:25:07;;;;;;;6.88;1.88;;;13.50;99.90;;;;;;4915796;29;20086;-91
2021/10/01 09:27:34;;;;;;;7.85;2.13;;;13.50;99.90;;;;;;4932666;29;20020;-88
2021/10/01 09:30:00;;;;;;;7.35;1.80;;;13.50;99.90;;;;;;4928607;29;20027;-90
2021/10/01 09:32:25;;;;;;;9.40;2.13;;;13.60;99.90;;;;;;4933593;29;20489;-89
2021/10/01 09:34:51;;;;;;;9.32;2.85;;;13.70;99.90;;;;;;4934450;29;20047;-91
2021/10/01 09:37:30;;;;;;;10.13;2.15;;;13.80;99.90;;;;;;4930710;29;20020;-89
2021/10/01 09:39:58;;;;;;;7.57;1.52;;;13.80;99.90;;;;;;4933725;29;20063;-88
2021/10/01 09:42:27;;;;;;;5.68;1.10;;;13.60;99.90;;;;;;4935251;29;20071;-88
2021/10/01 09:45:01;;;;;;;7.93;1.30;;;13.40;99.90;;;;;;4930600;29;20391;-88
2021/10/01 09:47:47;;;;;;;7.18;1.00;;;13.20;99.90;;;;;;4938540;29;20088;-89
2021/10/01 09:50:19;;;;;;;6.68;1.25;;;13.00;99.90;;;;;;4933208;29;20063;-88
2021/10/01 09:52:51;;;;;;;6.43;1.25;;;12.90;99.90;;;;;;4920586;29;20500;-89
2021/10/01 09:55:20;;;;;;;9.05;1.10;;;12.90;99.90;;;;;;4936165;29;20067;-89
2021/10/01 09:58:00;;;;;;;11.70;1.60;;;12.90;99.90;;;;;;4930123;29;20028;-89
2021/10/01 10:00:48;;;;;;;5.93;1.13;;;13.20;99.90;;;;;;4936837;29;20437;-89
2021/10/01 10:03:29;;;;;;;6.25;0.60;;;13.40;99.90;;;;;;4933572;29;20043;-90
2021/10/01 10:06:07;;;;;;;9.02;1.27;;;13.60;99.90;;;;;;4925021;29;20051;-89
2021/10/01 10:08:37;;;;;;;2.88;0.70;;;13.90;99.90;;;;;;4938137;29;20087;-89
2021/10/01 10:11:05;;;;;;;6.40;0.80;;;14.10;99.90;;;;;;4932416;29;20031;-90
2021/10/01 10:13:46;;;;;;;2.95;0.73;;;14.30;99.90;;;;;;4938752;28;20027;-91
2021/10/01 10:16:20;;;;;;;4.22;0.90;;;14.40;99.90;;;;;;4937166;28;20051;-91
2021/10/01 10:18:50;;;;;;;4.70;0.85;;;14.50;99.90;;;;;;4918951;29;20062;-91
2021/10/01 10:21:16;;;;;;;7.30;1.17;;;14.60;99.90;;;;;;4921302;29;20133;-91
2021/10/01 10:23:43;;;;;;;7.00;0.85;;;14.70;99.90;;;;;;4920908;29;20091;-93
2021/10/01 10:26:09;;;;;;;6.00;0.80;;;14.80;99.90;;;;;;4921401;29;20031;-89
2021/10/01 10:28:38;;;;;;;4.47;0.70;;;14.90;99.90;;;;;;4921291;29;20032;-91
2021/10/01 10:31:03;;;;;;;6.78;1.77;;;15.00;99.90;;;;;;4938359;29;20120;-92
2021/10/01 10:33:42;;;;;;;5.15;0.90;;;15.10;99.90;;;;;;4938558;29;20112;-90
2021/10/01 10:36:38;;;;;;;3.55;0.52;;;15.30;99.90;;;;;;4927882;29;20032;-92
2021/10/01 10:39:13;;;;;;;3.50;0.73;;;15.40;98.70;;;;;;4919229;29;20030;-92
2021/10/01 10:41:39;;;;;;;3.42;0.80;;;15.60;98.50;;;;;;4926491;29;20482;-93
2021/10/01 10:44:06;;;;;;;3.42;0.60;;;15.80;98.30;;;;;;4944162;29;20028;-92
2021/10/01 10:46:34;;;;;;;8.85;1.33;;;15.90;97.80;;;;;;4937543;29;20117;-92
2021/10/01 10:49:19;;;;;;;6.00;1.20;;;16.10;97.10;;;;;;4923177;29;20134;-92
2021/10/01 10:51:57;;;;;;;7.72;1.30;;;16.20;95.90;;;;;;4904982;29;20028;-93
2021/10/01 10:54:28;;;;;;;6.20;1.25;;;16.20;93.90;;;;;;4905052;29;20537;-89
2021/10/01 10:57:15;;;;;;;7.28;0.95;;;16.30;93.70;;;;;;4903368;29;20039;-91
2021/10/01 10:59:47;;;;;;;5.38;0.80;;;16.40;92.60;;;;;;4914993;29;20099;-93
2021/10/01 11:02:44;;;;;;;8.35;1.25;;;16.30;91.40;;;;;;4918682;29;20470;-90
2021/10/01 11:05:19;;;;;;;4.38;1.00;;;16.20;90.70;;;;;;4901668;29;20032;-88
2021/10/01 11:07:49;;;;;;;7.70;1.25;;;16.10;90.70;;;;;;4901796;29;20059;-89
2021/10/01 11:10:34;;;;;;;;;;;16.00;90.90;;;;;;4919066;29;20035;-90
2021/10/01 11:13:18;;;;;;;9.98;1.38;;;16.00;91.00;;;;;;4921346;29;19910;-90
2021/10/01 11:16:09;;;;;;;5.35;0.90;;;16.20;91.10;;;;;;4921294;29;20047;-88
2021/10/01 11:18:35;;;;;;;5.88;0.65;;;16.50;90.80;;;;;;4921669;29;20395;-90
2021/10/01 11:21:20;;;;;;;9.60;1.80;;;16.70;90.00;;;;;;4921402;29;20371;-90
2021/10/01 11:24:04;;;;;;;7.05;1.02;;;16.90;87.30;;;;;;4921639;29;20027;-89
2021/10/01 11:26:49;;;;;;;9.38;1.00;;;17.10;85.60;;;;;;4921678;29;20023;-90
2021/10/01 11:29:24;;;;;;;6.93;1.27;;;16.90;83.80;;;;;;4921433;29;20470;-90
2021/10/01 11:32:01;;;;;;;5.75;0.88;;;16.60;84.10;;;;;;4921213;29;20031;-90
2021/10/01 11:34:43;;;;;;;3.92;0.50;;;16.50;84.60;;;;;;4921273;29;20043;-90
2021/10/01 11:37:33;;;;;;;2.70;0.80;;;16.50;83.80;;;;;;4920821;29;20020;-90
2021/10/01 11:40:04;;;;;;;2.45;0.60;;;16.60;82.90;;;;;;4921020;29;20031;-89
2021/10/01 11:42:32;;;;;;;;;;;16.80;81.20;;;;;;4920752;29;20024;-90
2021/10/01 11:45:14;;;;;;;5.53;1.10;;;16.80;81.00;;;;;;4920632;29;19911;-90
2021/10/01 11:47:49;;;;;;;6.70;1.98;;;16.70;79.90;;;;;;4921023;29;20032;-90
2021/10/01 11:50:15;;;;;;;4.22;0.82;;;16.60;80.30;;;;;;4920779;29;20038;-90
2021/10/01 11:52:44;;;;;;;4.00;1.38;;;16.60;80.20;;;;;;4920761;29;20380;-90
2021/10/01 11:55:11;;;;;;;3.88;0.88;;;16.80;80.30;;;;;;4921023;29;20031;-90
2021/10/01 11:57:43;;;;;;;4.15;1.15;;;17.00;78.70;;;;;;4920732;29;20492;-91
2021/10/01 12:00:11;;;;;;;3.17;0.80;;;17.10;78.40;;;;;;4921579;29;20031;-90
2021/10/01 12:02:39;;;;;;;5.85;1.02;;;17.20;76.00;;;;;;4929047;29;20122;-89
2021/10/01 12:05:30;;;;;;;7.35;0.80;;;17.20;74.70;;;;;;4927211;29;20110;-89
2021/10/01 12:08:02;;;;;;;5.22;0.70;;;17.30;74.70;;;;;;4926358;29;20115;-88
2021/10/01 12:10:30;;;;;;;4.93;0.80;;;17.30;74.70;;;;;;4925085;29;20031;-90
2021/10/01 12:13:02;;;;;;;3.28;0.70;;;17.40;74.90;;;;;;4922646;29;20019;-90
2021/10/01 12:15:53;;;;;;;4.53;0.65;;;17.40;75.10;;;;;;4919606;29;20097;-90
2021/10/01 12:18:39;;;;;;;4.63;0.90;;;17.40;74.80;;;;;;4918383;29;20051;-90
2021/10/01 12:21:17;;;;;;;3.75;0.82;;;17.50;74.60;;;;;;4936070;29;20112;-90
2021/10/01 12:23:46;;;;;;;6.18;1.20;;;17.80;74.80;;;;;;4940102;29;20035;-89
2021/10/01 12:26:26;;;;;;;6.18;0.90;;;18.30;74.20;;;;;;4939139;29;20122;-90
2021/10/01 12:29:00;;;;;;;4.73;0.90;;;18.50;72.80;;;;;;4939889;29;20532;-91
2021/10/01 12:31:31;;;;;;;4.03;0.90;;;18.50;72.10;;;;;;4939701;29;20028;-91
2021/10/01 12:33:58;;;;;;;;;;;18.20;72.30;;;;;;4939851;29;20487;-92
2021/10/01 12:36:24;;;;;;;6.65;1.30;;;17.80;72.20;;;;;;4939006;29;20395;-90
2021/10/01 12:38:53;;;;;;;3.53;0.73;;;17.50;73.00;;;;;;4938830;29;20492;-91
2021/10/01 12:41:20;;;;;;;3.22;0.90;;;17.60;74.10;;;;;;4913651;29;20035;-91
2021/10/01 12:43:52;;;;;;;4.30;0.90;;;17.70;72.90;;;;;;4917980;29;20031;-91
2021/10/01 12:46:41;;;;;;;5.70;1.13;;;17.90;72.90;;;;;;4918824;29;20306;-90
2021/10/01 12:49:23;;;;;;;4.53;0.73;;;18.00;72.20;;;;;;4919681;29;20070;-89
2021/10/01 12:52:20;;;;;;;5.55;1.30;;;18.10;71.00;;;;;;4919748;29;20036;-90
2021/10/01 12:54:49;;;;;;;2.58;0.98;;;18.20;70.70;;;;;;4920345;29;20035;-90
2021/10/01 12:57:15;;;;;;;8.32;0.80;;;18.40;70.70;;;;;;4919283;29;20122;-90
2021/10/01 12:59:42;;;;;;;4.47;1.13;;;18.50;70.20;;;;;;4934366;29;20126;-91
2021/10/01 13:02:14;;;;;;;11.25;0.77;;;18.50;69.20;;;;;;4919642;29;20082;-91
2021/10/01 13:04:48;;;;;;;6.88;1.10;;;18.20;68.90;;;;;;4919390;29;20502;-90
2021/10/01 13:07:25;;;;;;;4.32;0.88;;;17.80;69.50;;;;;;4919502;29;20027;-92
2021/10/01 13:09:52;;;;;;;3.42;1.20;;;17.40;70.20;;;;;;4920700;29;20489;-90
2021/10/01 13:12:35;;;;;;;6.10;1.13;;;17.00;71.30;;;;;;4920784;29;20035;-90
2021/10/01 13:15:21;;;;;;;4.40;1.02;;;16.70;72.50;;;;;;4916229;29;20052;-88
2021/10/01 13:18:02;;;;;;;5.78;0.98;;;16.60;74.10;;;;;;4916596;29;20052;-88
2021/10/01 13:20:29;;;;;;;4.28;1.00;;;16.80;74.60;;;;;;4923149;29;20036;-88
2021/10/01 13:23:02;;;;;;;5.72;1.23;;;17.10;74.50;;;;;;4949224;29;20024;-88
2021/10/01 13:25:34;;;;;;;4.10;0.70;;;17.60;73.90;;;;;;4918323;29;20062;-89
2021/10/01 13:28:01;;;;;;;1.73;0.50;;;18.00;72.80;;;;;;4930209;29;20064;-89
2021/10/01 13:30:28;;;;;;;2.80;0.95;;;18.10;70.80;;;;;;4939094;29;20020;-90
2021/10/01 13:32:53;;;;;;;5.65;1.02;;;17.90;70.60;;;;;;4925709;29;20533;-89
2021/10/01 13:35:19;;;;;;;5.18;1.48;;;17.80;71.50;;;;;;4924208;29;20027;-90
2021/10/01 13:37:46;;;;;;;4.40;0.88;;;17.60;71.80;;;;;;4923612;29;20083;-90
2021/10/01 13:40:13;;;;;;;3.35;0.90;;;17.50;71.90;;;;;;4922601;29;20035;-89
2021/10/01 13:42:39;;;;;;;7.72;1.52;;;17.40;72.20;;;;;;4922334;29;20043;-89
2021/10/01 13:45:07;;;;;;;5.05;0.90;;;17.40;72.00;;;;;;4922325;29;20042;-89
2021/10/01 13:47:33;;;;;;;4.55;1.25;;;17.70;72.30;;;;;;4917656;29;20020;-89
2021/10/01 13:49:59;;;;;;;5.47;1.20;;;17.90;71.50;;;;;;4917343;29;20401;-90
2021/10/01 13:52:26;;;;;;;10.65;1.70;;;17.70;70.40;;;;;;4922454;29;20023;-89
2021/10/01 13:54:52;;;;;;;5.82;1.40;;;17.60;71.10;;;;;;4922871;29;20027;-89
2021/10/01 13:57:18;;;;;;;9.10;1.10;;;17.40;70.70;;;;;;4924594;29;20039;-89
2021/10/01 13:59:45;;;;;;;4.70;0.82;;;17.20;70.90;;;;;;4920066;29;20039;-90
2021/10/01 14:02:10;;;;;;;2.85;0.80;;;17.00;71.00;;;;;;4921746;29;20529;-89
2021/10/01 14:04:36;;;;;;;3.65;0.73;;;17.00;71.50;;;;;;4918585;29;20031;-89
2021/10/01 14:07:02;;;;;;;6.53;1.05;;;17.20;71.30;;;;;;4921431;29;20035;-88
2021/10/01 14:09:28;;;;;;;5.07;1.10;;;17.50;69.80;;;;;;4921749;29;20039;-87
2021/10/01 14:11:54;;;;;;;5.43;1.52;;;17.90;69.60;;;;;;4920093;29;20031;-90
2021/10/01 14:14:20;;;;;;;7.18;0.90;;;18.20;68.80;;;;;;4919189;29;20031;-91
2021/10/01 14:16:45;;;;;;;6.05;1.02;;;18.40;68.50;;;;;;4919462;29;20031;-90
2021/10/01 14:19:11;;;;;;;5.80;1.27;;;18.50;68.40;;;;;;4917271;29;20044;-90
2021/10/01 14:21:37;;;;;;;3.15;0.98;;;18.40;67.60;;;;;;4914449;29;20031;-90
2021/10/01 14:24:03;;;;;;;8.40;1.20;;;18.40;67.30;;;;;;4917908;29;20525;-89
2021/10/01 14:26:30;;;;;;;6.10;1.15;;;18.30;66.70;;;;;;4917051;29;20039;-89
2021/10/01 14:28:56;;;;;;;3.00;0.70;;;18.40;67.00;;;;;;4918445;29;20039;-88
2021/10/01 14:31:22;;;;;;;4.00;1.13;;;18.60;66.70;;;;;;4918520;29;20039;-90
2021/10/01 14:33:48;;;;;;;4.20;0.90;;;18.60;65.60;;;;;;4918832;29;20040;-89
2021/10/01 14:36:14;;;;;;;4.03;0.95;;;18.80;65.60;;;;;;4918792;29;20027;-88
2021/10/01 14:38:40;;;;;;;5.47;0.90;;;18.90;64.10;;;;;;4920093;29;20035;-89